Time;durP1;ratioP1;P1;durP2;ratioP2;P2;SDS_P1;SDS_P2;PMS_P1;PMS_P2;Temp;Humidity;BMP_temperature;BMP_pressure;BME280_temperature;BME280_humidity;BME280_pressure;Samples;Min_cycle;Max_cycle;Signal;HPM_P1;HPM_P2
2021/06/06 00:01:15;;;;;;;8.05;5.70;;;;;;;;;;4991888;28;20022;-73
2021/06/06 00:03:44;;;;;;;11.68;5.38;;;;;;;;;;4992042;28;20034;-73
2021/06/06 00:06:19;;;;;;;12.40;5.30;;;;;;;;;;4992070;28;20283;-73
2021/06/06 00:08:47;;;;;;;10.18;5.28;;;;;;;;;;4990290;28;20022;-76
2021/06/06 00:11:15;;;;;;;8.13;5.20;;;;;;;;;;4990540;28;20046;-73
2021/06/06 00:13:43;;;;;;;12.85;5.95;;;;;;;;;;4990498;28;20019;-73
2021/06/06 00:16:13;;;;;;;10.73;5.60;;;;;;;;;;4991022;28;20041;-75
2021/06/06 00:18:40;;;;;;;10.80;5.40;;;;;;;;;;4991847;28;20113;-75
2021/06/06 00:21:07;;;;;;;11.68;6.07;;;;;;;;;;4991969;28;20026;-75
2021/06/06 00:23:33;;;;;;;14.38;5.68;;;;;;;;;;4991968;28;20021;-77
2021/06/06 00:26:03;;;;;;;8.23;5.93;;;;;;;;;;4990832;28;20022;-73
2021/06/06 00:28:33;;;;;;;10.50;5.80;;;;;;;;;;4991265;28;20552;-73
2021/06/06 00:31:00;;;;;;;12.90;5.30;;;;;;;;;;4992016;28;20030;-73
2021/06/06 00:33:27;;;;;;;11.90;5.20;;;;;;;;;;4991767;28;20045;-72
2021/06/06 00:35:55;;;;;;;7.18;5.68;;;;;;;;;;4991664;28;20106;-73
2021/06/06 00:38:21;;;;;;;10.98;5.45;;;;;;;;;;4991304;28;20033;-74
2021/06/06 00:40:48;;;;;;;11.07;5.38;;;;;;;;;;4991784;28;20391;-73
2021/06/06 00:43:16;;;;;;;11.75;6.45;;;;;;;;;;4990887;28;20050;-73
2021/06/06 00:45:43;;;;;;;13.65;6.25;;;;;;;;;;4991174;28;20474;-73
2021/06/06 00:48:09;;;;;;;10.63;5.38;;;;;;;;;;4991345;28;20019;-73
2021/06/06 00:50:43;;;;;;;9.45;5.82;;;;;;;;;;4991895;28;20126;-72
2021/06/06 00:53:12;;;;;;;9.05;5.60;;;;;;;;;;4991856;28;20547;-72
2021/06/06 00:55:39;;;;;;;12.05;6.03;;;;;;;;;;4991771;28;20390;-72
2021/06/06 00:58:10;;;;;;;9.57;6.32;;;;;;;;;;4990209;28;20053;-76
2021/06/06 01:00:46;;;;;;;14.38;6.32;;;;;;;;;;4988754;28;20036;-73
2021/06/06 01:03:13;;;;;;;13.43;6.93;;;;;;;;;;4988992;28;20399;-73
2021/06/06 01:05:46;;;;;;;16.42;6.85;;;;;;;;;;4991045;28;20069;-72
2021/06/06 01:08:13;;;;;;;10.15;6.45;;;;;;;;;;4991635;28;20135;-73
2021/06/06 01:10:41;;;;;;;11.77;7.28;;;;;;;;;;4991622;28;20360;-76
2021/06/06 01:13:19;;;;;;;9.52;7.13;;;;;;;;;;4991031;28;20435;-73
2021/06/06 01:15:48;;;;;;;10.98;7.03;;;;;;;;;;4991542;28;20390;-73
2021/06/06 01:18:22;;;;;;;11.93;7.90;;;;;;;;;;4991287;28;20019;-73
2021/06/06 01:21:05;;;;;;;11.60;7.40;;;;;;;;;;4990927;28;20022;-73
2021/06/06 01:23:42;;;;;;;14.80;7.80;;;;;;;;;;4989475;28;20023;-73
2021/06/06 01:26:20;;;;;;;13.60;8.13;;;;;;;;;;4989769;28;20500;-72
2021/06/06 01:28:46;;;;;;;11.98;7.93;;;;;;;;;;4990421;28;20510;-74
2021/06/06 01:31:14;;;;;;;13.10;8.57;;;;;;;;;;4990247;28;20030;-72
2021/06/06 01:33:44;;;;;;;12.85;9.10;;;;;;;;;;4990652;28;20042;-72
2021/06/06 01:36:21;;;;;;;15.23;8.35;;;;;;;;;;4990456;28;20102;-72
2021/06/06 01:38:53;;;;;;;13.65;8.25;;;;;;;;;;4990729;28;20053;-72
2021/06/06 01:41:19;;;;;;;;;;;;;;;;;;4991295;28;20030;-72
2021/06/06 01:43:50;;;;;;;12.27;7.75;;;;;;;;;;4990616;28;19918;-72
2021/06/06 01:46:18;;;;;;;11.57;7.82;;;;;;;;;;4991036;28;20022;-72
2021/06/06 01:48:45;;;;;;;12.27;7.82;;;;;;;;;;4991026;28;20109;-72
2021/06/06 01:51:16;;;;;;;9.77;7.97;;;;;;;;;;4989042;28;20030;-72
2021/06/06 01:53:44;;;;;;;11.10;8.32;;;;;;;;;;4990754;28;20034;-72
2021/06/06 01:56:11;;;;;;;16.75;8.27;;;;;;;;;;4990846;28;20038;-72
2021/06/06 01:58:38;;;;;;;13.23;8.25;;;;;;;;;;4990349;28;20018;-73
2021/06/06 02:01:09;;;;;;;11.82;7.50;;;;;;;;;;4990543;28;20041;-72
2021/06/06 02:03:36;;;;;;;12.50;8.07;;;;;;;;;;4990838;28;20096;-72
2021/06/06 02:06:02;;;;;;;9.85;7.60;;;;;;;;;;4991022;28;20033;-72
2021/06/06 02:08:32;;;;;;;14.90;8.07;;;;;;;;;;4990657;28;20041;-72
2021/06/06 02:11:05;;;;;;;10.30;7.38;;;;;;;;;;4990594;28;20019;-72
2021/06/06 02:13:44;;;;;;;11.38;7.28;;;;;;;;;;4989785;28;20035;-72
2021/06/06 02:16:12;;;;;;;9.50;7.20;;;;;;;;;;4990467;28;20052;-72
2021/06/06 02:18:39;;;;;;;9.38;7.60;;;;;;;;;;4990490;28;20038;-73
2021/06/06 02:21:05;;;;;;;12.77;7.65;;;;;;;;;;4989767;28;20026;-73
2021/06/06 02:23:33;;;;;;;8.23;7.30;;;;;;;;;;4989342;28;20030;-73
2021/06/06 02:26:19;;;;;;;9.20;7.13;;;;;;;;;;4989346;28;20026;-72
2021/06/06 02:28:51;;;;;;;10.70;7.43;;;;;;;;;;4985620;28;20096;-73
2021/06/06 02:31:17;;;;;;;13.38;6.95;;;;;;;;;;4990549;28;20164;-73
2021/06/06 02:33:52;;;;;;;9.98;7.57;;;;;;;;;;4990187;28;20121;-72
2021/06/06 02:36:20;;;;;;;10.05;7.95;;;;;;;;;;4990371;28;20057;-72
2021/06/06 02:38:46;;;;;;;12.05;8.00;;;;;;;;;;4990225;28;20561;-73
2021/06/06 02:41:15;;;;;;;11.43;7.32;;;;;;;;;;4990434;28;20028;-73
2021/06/06 02:43:53;;;;;;;11.77;7.72;;;;;;;;;;4993468;28;20121;-73
2021/06/06 02:46:21;;;;;;;11.32;8.05;;;;;;;;;;4992866;28;20077;-73
2021/06/06 02:48:50;;;;;;;9.50;7.53;;;;;;;;;;4991580;28;20026;-73
2021/06/06 02:51:18;;;;;;;11.90;8.07;;;;;;;;;;4992805;28;20402;-73
2021/06/06 02:54:00;;;;;;;11.85;8.05;;;;;;;;;;4991543;28;20030;-73
2021/06/06 02:56:28;;;;;;;12.55;8.07;;;;;;;;;;4991982;28;20030;-77
2021/06/06 02:58:56;;;;;;;11.75;7.50;;;;;;;;;;4993162;28;20023;-72
2021/06/06 03:01:31;;;;;;;9.60;7.28;;;;;;;;;;4993345;28;20386;-73
2021/06/06 03:03:58;;;;;;;12.30;8.30;;;;;;;;;;4993386;28;20041;-72
2021/06/06 03:06:28;;;;;;;12.38;8.07;;;;;;;;;;4993250;28;20072;-77
2021/06/06 03:08:54;;;;;;;15.45;7.45;;;;;;;;;;4992873;28;20038;-71
2021/06/06 03:11:20;;;;;;;9.30;7.20;;;;;;;;;;4991856;28;20066;-77
2021/06/06 03:13:48;;;;;;;12.73;7.28;;;;;;;;;;4991392;28;20099;-73
2021/06/06 03:16:16;;;;;;;12.27;8.60;;;;;;;;;;4991325;28;20101;-73
2021/06/06 03:18:44;;;;;;;8.73;7.45;;;;;;;;;;4992574;28;20051;-73
2021/06/06 03:21:18;;;;;;;10.68;8.10;;;;;;;;;;4993191;28;20058;-73
2021/06/06 03:23:46;;;;;;;12.32;7.55;;;;;;;;;;4993214;28;20382;-73
2021/06/06 03:26:12;;;;;;;10.20;7.38;;;;;;;;;;4993236;28;20049;-73
2021/06/06 03:28:39;;;;;;;15.30;7.90;;;;;;;;;;4991437;28;20026;-76
2021/06/06 03:31:07;;;;;;;10.23;7.93;;;;;;;;;;4992131;28;20030;-73
2021/06/06 03:33:33;;;;;;;11.57;7.43;;;;;;;;;;4991654;28;20114;-73
2021/06/06 03:35:59;;;;;;;9.85;8.00;;;;;;;;;;4992182;28;20099;-73
2021/06/06 03:38:25;;;;;;;13.15;8.15;;;;;;;;;;4990612;28;20030;-73
2021/06/06 03:40:51;;;;;;;9.45;7.78;;;;;;;;;;4991539;28;20038;-74
2021/06/06 03:43:18;;;;;;;10.00;8.57;;;;;;;;;;4992787;28;20047;-73
2021/06/06 03:45:44;;;;;;;11.27;7.60;;;;;;;;;;4992604;28;20029;-73
2021/06/06 03:48:10;;;;;;;18.00;8.23;;;;;;;;;;4989550;28;20030;-73
2021/06/06 03:50:38;;;;;;;17.95;7.97;;;;;;;;;;4990897;28;20482;-73
2021/06/06 03:53:04;;;;;;;12.70;7.50;;;;;;;;;;4991031;28;20080;-76
2021/06/06 03:55:30;;;;;;;9.50;7.82;;;;;;;;;;4992885;28;20437;-73
2021/06/06 03:57:56;;;;;;;17.80;7.40;;;;;;;;;;4992516;28;20038;-73
2021/06/06 04:00:22;;;;;;;9.73;8.30;;;;;;;;;;4992214;28;20030;-73
2021/06/06 04:02:49;;;;;;;9.75;7.30;;;;;;;;;;4992429;28;20027;-73
2021/06/06 04:05:15;;;;;;;15.38;7.65;;;;;;;;;;4992246;28;20026;-76
2021/06/06 04:07:41;;;;;;;12.38;8.43;;;;;;;;;;4992111;28;20475;-72
2021/06/06 04:10:08;;;;;;;11.52;8.43;;;;;;;;;;4992369;28;20113;-73
2021/06/06 04:12:34;;;;;;;12.02;8.00;;;;;;;;;;4992285;28;20436;-73
2021/06/06 04:15:00;;;;;;;12.13;8.82;;;;;;;;;;4992181;28;20038;-73
2021/06/06 04:17:26;;;;;;;13.65;9.43;;;;;;;;;;4992250;28;20037;-73
2021/06/06 04:19:53;;;;;;;12.45;8.00;;;;;;;;;;4992174;28;20022;-73
2021/06/06 04:22:20;;;;;;;17.30;9.27;;;;;;;;;;4991837;28;20026;-73
2021/06/06 04:24:46;;;;;;;14.95;9.25;;;;;;;;;;4991915;28;20027;-73
2021/06/06 04:27:12;;;;;;;10.15;8.50;;;;;;;;;;4992032;28;20076;-73
2021/06/06 04:29:38;;;;;;;9.07;8.00;;;;;;;;;;4991926;28;20026;-73
2021/06/06 04:32:05;;;;;;;12.38;8.70;;;;;;;;;;4991962;28;20023;-73
2021/06/06 04:34:33;;;;;;;13.77;7.85;;;;;;;;;;4991826;28;20069;-73
2021/06/06 04:37:00;;;;;;;10.95;7.88;;;;;;;;;;4991813;28;20030;-73
2021/06/06 04:39:26;;;;;;;13.35;7.85;;;;;;;;;;4991794;28;20559;-73
2021/06/06 04:41:52;;;;;;;14.15;8.25;;;;;;;;;;4991609;28;20027;-72
2021/06/06 04:44:18;;;;;;;9.07;7.70;;;;;;;;;;4991933;28;20030;-73
2021/06/06 04:46:44;;;;;;;12.18;6.95;;;;;;;;;;4991911;28;20113;-73
2021/06/06 04:49:10;;;;;;;10.95;7.88;;;;;;;;;;4991485;28;20031;-73
2021/06/06 04:51:36;;;;;;;9.63;7.10;;;;;;;;;;4991864;28;20026;-72
2021/06/06 04:54:02;;;;;;;7.75;5.80;;;;;;;;;;4991460;28;20041;-75
2021/06/06 04:56:29;;;;;;;10.00;6.05;;;;;;;;;;4991745;28;20379;-73
2021/06/06 04:58:56;;;;;;;8.93;5.63;;;;;;;;;;4991521;28;20113;-73
2021/06/06 05:01:22;;;;;;;12.27;6.10;;;;;;;;;;4991380;28;20038;-73
2021/06/06 05:03:48;;;;;;;9.95;6.25;;;;;;;;;;4991289;28;20470;-73
2021/06/06 05:06:14;;;;;;;12.65;6.38;;;;;;;;;;4990940;28;20037;-73
2021/06/06 05:08:41;;;;;;;13.02;7.05;;;;;;;;;;4991168;28;20034;-73
2021/06/06 05:11:07;;;;;;;15.50;6.47;;;;;;;;;;4991468;28;20522;-73
2021/06/06 05:13:33;;;;;;;9.90;6.10;;;;;;;;;;4991582;28;20027;-73
2021/06/06 05:16:00;;;;;;;9.57;5.95;;;;;;;;;;4991507;28;20062;-73
2021/06/06 05:18:26;;;;;;;9.68;6.10;;;;;;;;;;4991118;28;20023;-73
2021/06/06 05:20:53;;;;;;;7.35;6.30;;;;;;;;;;4991039;28;20037;-74
2021/06/06 05:23:20;;;;;;;7.70;5.97;;;;;;;;;;4991328;28;20018;-73
2021/06/06 05:25:46;;;;;;;16.20;6.25;;;;;;;;;;4991369;28;20057;-77
2021/06/06 05:28:14;;;;;;;6.95;5.78;;;;;;;;;;4991098;28;20030;-73
2021/06/06 05:30:41;;;;;;;11.30;6.43;;;;;;;;;;4991362;28;20106;-73
2021/06/06 05:33:07;;;;;;;11.75;6.50;;;;;;;;;;4991122;28;20031;-73
2021/06/06 05:35:34;;;;;;;10.38;6.20;;;;;;;;;;4991049;28;20022;-73
2021/06/06 05:38:01;;;;;;;8.75;5.60;;;;;;;;;;4991328;28;20109;-73
2021/06/06 05:40:28;;;;;;;11.23;5.88;;;;;;;;;;4991288;28;20049;-73
2021/06/06 05:42:54;;;;;;;7.85;5.43;;;;;;;;;;4990743;28;20047;-73
2021/06/06 05:45:22;;;;;;;6.93;5.70;;;;;;;;;;4992465;28;20026;-73
2021/06/06 05:47:48;;;;;;;10.38;7.10;;;;;;;;;;4992201;28;20057;-73
2021/06/06 05:50:17;;;;;;;24.92;6.88;;;;;;;;;;4992668;28;20069;-76
2021/06/06 05:52:43;;;;;;;13.35;6.50;;;;;;;;;;4991258;28;20382;-73
2021/06/06 05:55:09;;;;;;;11.82;6.05;;;;;;;;;;4991690;28;20037;-73
2021/06/06 05:57:36;;;;;;;7.88;6.50;;;;;;;;;;4989521;28;20147;-73
2021/06/06 06:00:05;;;;;;;9.00;6.80;;;;;;;;;;4990798;28;20475;-73
2021/06/06 06:02:31;;;;;;;10.60;6.80;;;;;;;;;;4990700;28;20038;-73
2021/06/06 06:04:58;;;;;;;9.95;7.43;;;;;;;;;;4987903;28;20023;-73
2021/06/06 06:07:24;;;;;;;12.93;8.20;;;;;;;;;;4989165;28;20034;-74
2021/06/06 06:09:50;;;;;;;13.43;7.93;;;;;;;;;;4989078;28;20030;-75
2021/06/06 06:12:16;;;;;;;15.93;8.15;;;;;;;;;;4986725;28;20023;-75
2021/06/06 06:14:43;;;;;;;11.50;8.18;;;;;;;;;;4985012;28;20038;-75
2021/06/06 06:17:09;;;;;;;11.93;9.15;;;;;;;;;;4989992;28;20072;-76
2021/06/06 06:19:35;;;;;;;14.27;8.95;;;;;;;;;;4991713;28;20079;-76
2021/06/06 06:22:01;;;;;;;11.02;9.65;;;;;;;;;;4992173;28;20037;-75
2021/06/06 06:24:28;;;;;;;13.40;8.60;;;;;;;;;;4992231;28;20430;-77
2021/06/06 06:26:55;;;;;;;10.35;8.38;;;;;;;;;;4991883;28;20057;-74
2021/06/06 06:29:22;;;;;;;10.02;8.07;;;;;;;;;;4988553;28;20121;-74
2021/06/06 06:31:49;;;;;;;10.95;8.43;;;;;;;;;;4989694;28;20038;-75
2021/06/06 06:34:15;;;;;;;12.57;8.25;;;;;;;;;;4990657;28;20034;-74
2021/06/06 06:36:42;;;;;;;11.57;8.40;;;;;;;;;;4992749;28;20148;-74
2021/06/06 06:39:09;;;;;;;12.77;8.10;;;;;;;;;;4991743;28;20390;-74
2021/06/06 06:41:35;;;;;;;11.68;7.88;;;;;;;;;;4991925;28;20034;-74
2021/06/06 06:44:02;;;;;;;10.95;8.00;;;;;;;;;;4992071;28;20129;-77
2021/06/06 06:46:29;;;;;;;9.85;7.50;;;;;;;;;;4991578;28;20049;-74
2021/06/06 06:48:55;;;;;;;9.02;6.63;;;;;;;;;;4990141;28;20026;-74
2021/06/06 06:51:22;;;;;;;11.18;6.82;;;;;;;;;;4991125;28;20022;-75
2021/06/06 06:53:51;;;;;;;10.02;6.55;;;;;;;;;;4992422;28;20054;-74
2021/06/06 06:56:17;;;;;;;8.10;5.68;;;;;;;;;;4965726;28;20442;-76
2021/06/06 06:58:43;;;;;;;11.82;5.65;;;;;;;;;;4954184;28;20037;-75
2021/06/06 07:01:09;;;;;;;8.38;5.35;;;;;;;;;;4953763;28;20393;-75
2021/06/06 07:03:36;;;;;;;10.77;5.30;;;;;;;;;;4952516;28;20039;-74
2021/06/06 07:06:04;;;;;;;11.77;5.97;;;;;;;;;;4962009;28;20031;-74
2021/06/06 07:08:32;;;;;;;8.15;5.35;;;;;;;;;;4950138;28;20020;-74
2021/06/06 07:10:58;;;;;;;9.80;5.78;;;;;;;;;;4934620;29;20032;-76
2021/06/06 07:13:25;;;;;;;9.65;5.97;;;;;;;;;;4934823;29;20043;-75
2021/06/06 07:15:53;;;;;;;8.77;6.40;;;;;;;;;;4935023;29;20042;-73
2021/06/06 07:18:21;;;;;;;9.70;6.78;;;;;;;;;;4946309;28;20031;-75
2021/06/06 07:20:49;;;;;;;10.27;5.75;;;;;;;;;;4951849;28;20089;-75
2021/06/06 07:23:16;;;;;;;7.15;5.43;;;;;;;;;;4951104;28;20042;-76
2021/06/06 07:25:44;;;;;;;11.55;6.47;;;;;;;;;;4952505;28;20389;-74
2021/06/06 07:28:12;;;;;;;12.90;5.50;;;;;;;;;;4952021;28;20074;-75
2021/06/06 07:30:41;;;;;;;8.57;5.10;;;;;;;;;;4952321;28;20027;-74
2021/06/06 07:33:08;;;;;;;9.55;5.30;;;;;;;;;;4952503;28;20031;-76
2021/06/06 07:35:34;;;;;;;10.07;4.72;;;;;;;;;;4953185;28;20036;-76
2021/06/06 07:38:00;;;;;;;11.70;5.07;;;;;;;;;;4953005;28;20023;-75
2021/06/06 07:40:28;;;;;;;8.98;5.00;;;;;;;;;;4953202;28;20027;-75
2021/06/06 07:42:55;;;;;;;8.77;4.68;;;;;;;;;;4953538;28;20131;-76
2021/06/06 07:45:24;;;;;;;11.95;4.90;;;;;;;;;;4953564;28;20073;-75
2021/06/06 07:47:50;;;;;;;4.80;4.28;;;;;;;;;;4951683;28;20412;-74
2021/06/06 07:50:19;;;;;;;7.13;4.97;;;;;;;;;;4953447;28;20027;-74
2021/06/06 07:52:45;;;;;;;5.28;4.07;;;;;;;;;;4953139;28;20555;-75
2021/06/06 07:55:14;;;;;;;8.32;4.28;;;;;;;;;;4952840;28;20089;-74
2021/06/06 07:57:40;;;;;;;7.93;4.35;;;;;;;;;;4952950;28;20038;-73
2021/06/06 08:00:09;;;;;;;8.25;4.00;;;;;;;;;;4952764;28;20027;-73
2021/06/06 08:02:36;;;;;;;4.88;3.90;;;;;;;;;;4960935;28;20031;-75
2021/06/06 08:05:02;;;;;;;8.73;4.38;;;;;;;;;;4972815;28;20105;-74
2021/06/06 08:07:29;;;;;;;7.80;4.38;;;;;;;;;;4972291;28;20551;-73
2021/06/06 08:09:56;;;;;;;9.85;4.53;;;;;;;;;;4971074;28;20023;-77
2021/06/06 08:12:26;;;;;;;9.77;3.67;;;;;;;;;;4972324;28;20023;-73
2021/06/06 08:14:53;;;;;;;7.53;3.97;;;;;;;;;;4972004;28;20027;-74
2021/06/06 08:17:19;;;;;;;5.18;4.35;;;;;;;;;;4971853;28;20031;-76
2021/06/06 08:19:46;;;;;;;16.17;4.05;;;;;;;;;;4972274;28;20047;-76
2021/06/06 08:22:13;;;;;;;6.63;4.10;;;;;;;;;;4971994;28;20031;-73
2021/06/06 08:24:40;;;;;;;7.65;4.10;;;;;;;;;;4971213;28;20031;-75
2021/06/06 08:27:07;;;;;;;8.50;4.05;;;;;;;;;;4972390;28;20110;-77
2021/06/06 08:29:34;;;;;;;7.57;3.88;;;;;;;;;;4972227;28;20031;-74
2021/06/06 08:32:00;;;;;;;7.68;3.67;;;;;;;;;;4982331;23;20181;-72
2021/06/06 08:34:28;;;;;;;7.03;3.97;;;;;;;;;;4953064;28;20467;-71
2021/06/06 08:36:56;;;;;;;8.60;3.45;;;;;;;;;;4949944;28;20383;-73
2021/06/06 08:39:23;;;;;;;6.65;3.90;;;;;;;;;;4952262;28;20410;-72
2021/06/06 08:42:09;;;;;;;7.50;4.28;;;;;;;;;;4952271;28;20051;-72
2021/06/06 08:44:39;;;;;;;9.10;4.18;;;;;;;;;;4952332;28;20035;-72
2021/06/06 08:47:05;;;;;;;9.95;4.25;;;;;;;;;;4952718;28;20031;-72
2021/06/06 08:49:38;;;;;;;6.85;4.15;;;;;;;;;;4952434;28;20036;-72
2021/06/06 08:52:04;;;;;;;;;;;;;;;;;;4952783;28;20039;-72
2021/06/06 08:54:37;;;;;;;7.85;3.92;;;;;;;;;;4951930;28;19972;-71
2021/06/06 08:57:13;;;;;;;7.82;3.22;;;;;;;;;;4952493;28;20020;-71
2021/06/06 08:59:46;;;;;;;9.65;3.78;;;;;;;;;;4951973;28;20582;-72
2021/06/06 09:02:15;;;;;;;6.50;3.72;;;;;;;;;;4952175;28;20102;-71
2021/06/06 09:04:42;;;;;;;11.32;4.03;;;;;;;;;;4952791;28;20317;-72
2021/06/06 09:07:27;;;;;;;11.00;3.85;;;;;;;;;;4951800;28;20027;-72
2021/06/06 09:09:54;;;;;;;5.75;3.85;;;;;;;;;;4952113;28;20077;-72
2021/06/06 09:12:23;;;;;;;6.82;4.22;;;;;;;;;;4951674;28;20024;-72
2021/06/06 09:14:50;;;;;;;8.27;4.45;;;;;;;;;;4951879;28;20040;-72
2021/06/06 09:17:18;;;;;;;7.75;4.13;;;;;;;;;;4951856;28;20023;-71
2021/06/06 09:19:57;;;;;;;6.72;4.22;;;;;;;;;;4951087;28;20110;-72
2021/06/06 09:22:41;;;;;;;10.23;4.18;;;;;;;;;;4952101;28;20019;-72
2021/06/06 09:25:13;;;;;;;11.30;4.43;;;;;;;;;;4952128;28;20096;-73
2021/06/06 09:27:40;;;;;;;6.85;4.07;;;;;;;;;;4951586;28;20123;-70
2021/06/06 09:30:09;;;;;;;10.25;3.80;;;;;;;;;;4951444;28;20027;-72
2021/06/06 09:32:36;;;;;;;8.23;4.22;;;;;;;;;;4951131;28;20063;-72
2021/06/06 09:35:19;;;;;;;9.10;4.60;;;;;;;;;;4952136;28;20044;-72
2021/06/06 09:37:50;;;;;;;13.52;4.72;;;;;;;;;;4951651;28;20047;-72
2021/06/06 09:40:28;;;;;;;9.10;4.45;;;;;;;;;;4950804;28;20164;-70
2021/06/06 09:42:54;;;;;;;4.90;4.03;;;;;;;;;;4950759;28;20034;-70
2021/06/06 09:45:25;;;;;;;8.48;4.07;;;;;;;;;;4951241;28;20019;-72
2021/06/06 09:47:56;;;;;;;9.30;3.83;;;;;;;;;;4951905;29;20037;-69
2021/06/06 09:50:23;;;;;;;8.45;3.75;;;;;;;;;;4951147;28;20107;-69
2021/06/06 09:52:51;;;;;;;5.68;4.20;;;;;;;;;;4952062;28;20433;-71
2021/06/06 09:55:29;;;;;;;6.30;3.63;;;;;;;;;;4949997;28;20495;-71
2021/06/06 09:58:08;;;;;;;7.68;3.75;;;;;;;;;;4951515;28;20035;-71
2021/06/06 10:00:43;;;;;;;8.63;3.85;;;;;;;;;;4951710;28;20103;-71
2021/06/06 10:03:28;;;;;;;5.70;3.92;;;;;;;;;;4951732;28;20045;-71
2021/06/06 10:06:10;;;;;;;5.47;3.40;;;;;;;;;;4951677;28;20391;-71
2021/06/06 10:08:36;;;;;;;8.65;3.92;;;;;;;;;;4950860;28;20057;-71
2021/06/06 10:11:10;;;;;;;8.65;3.70;;;;;;;;;;4951416;28;20031;-72
2021/06/06 10:13:37;;;;;;;11.23;4.32;;;;;;;;;;4961092;28;20031;-71
2021/06/06 10:16:30;;;;;;;7.55;4.10;;;;;;;;;;4971299;28;20483;-71
2021/06/06 10:18:59;;;;;;;5.90;3.17;;;;;;;;;;4974600;28;20114;-71
2021/06/06 10:21:32;;;;;;;5.78;3.35;;;;;;;;;;4970983;28;20111;-71
2021/06/06 10:24:26;;;;;;;7.70;2.80;;;;;;;;;;4970930;28;20486;-71
2021/06/06 10:26:57;;;;;;;8.07;3.58;;;;;;;;;;4971262;28;20041;-71
2021/06/06 10:29:32;;;;;;;7.13;3.00;;;;;;;;;;4971130;28;20019;-71
2021/06/06 10:32:07;;;;;;;6.80;2.65;;;;;;;;;;4971010;28;20504;-71
2021/06/06 10:34:34;;;;;;;7.72;2.80;;;;;;;;;;4969599;28;20042;-71
2021/06/06 10:37:01;;;;;;;5.55;2.83;;;;;;;;;;4970703;28;20034;-71
2021/06/06 10:39:28;;;;;;;8.82;2.90;;;;;;;;;;4970966;28;20031;-73
2021/06/06 10:41:55;;;;;;;5.25;2.30;;;;;;;;;;4971027;28;20030;-71
2021/06/06 10:44:33;;;;;;;5.22;2.65;;;;;;;;;;4971211;28;20414;-72
2021/06/06 10:47:32;;;;;;;8.05;2.60;;;;;;;;;;4970727;28;20364;-70
2021/06/06 10:50:02;;;;;;;6.75;2.42;;;;;;;;;;5023250;28;20039;-72
2021/06/06 10:52:32;;;;;;;5.90;2.40;;;;;;;;;;4969662;28;20038;-68
2021/06/06 10:55:00;;;;;;;8.48;2.58;;;;;;;;;;4970528;28;20487;-69
2021/06/06 10:57:26;;;;;;;8.00;2.72;;;;;;;;;;4969776;28;20495;-68
2021/06/06 10:59:55;;;;;;;4.70;2.35;;;;;;;;;;4970888;28;20103;-69
2021/06/06 11:02:28;;;;;;;9.98;2.83;;;;;;;;;;4970977;28;20039;-68
2021/06/06 11:04:55;;;;;;;4.03;2.58;;;;;;;;;;4974109;28;20126;-68
2021/06/06 11:07:31;;;;;;;6.43;3.08;;;;;;;;;;4973356;28;20054;-68
2021/06/06 11:10:21;;;;;;;6.43;2.75;;;;;;;;;;4973976;28;20056;-68
2021/06/06 11:12:49;;;;;;;4.47;2.80;;;;;;;;;;4985720;28;20043;-68
2021/06/06 11:15:18;;;;;;;8.52;3.13;;;;;;;;;;4973591;28;20046;-68
2021/06/06 11:17:45;;;;;;;9.13;3.00;;;;;;;;;;4974095;28;20050;-68
2021/06/06 11:20:14;;;;;;;8.00;2.75;;;;;;;;;;4973826;28;20049;-69
2021/06/06 11:22:42;;;;;;;9.52;2.75;;;;;;;;;;4974147;28;20106;-69
2021/06/06 11:25:24;;;;;;;6.78;2.78;;;;;;;;;;4973406;28;20026;-70
2021/06/06 11:28:00;;;;;;;4.03;2.83;;;;;;;;;;4973497;28;20039;-68
2021/06/06 11:30:32;;;;;;;8.32;3.08;;;;;;;;;;4973506;28;20037;-69
2021/06/06 11:32:59;;;;;;;6.57;2.67;;;;;;;;;;4973348;28;20104;-69
2021/06/06 11:35:25;;;;;;;7.20;2.40;;;;;;;;;;4973274;28;20478;-69
2021/06/06 11:37:53;;;;;;;8.73;2.80;;;;;;;;;;4972483;28;20023;-69
2021/06/06 11:40:20;;;;;;;5.32;2.60;;;;;;;;;;4972733;28;20034;-69
2021/06/06 11:42:47;;;;;;;5.05;2.72;;;;;;;;;;4973729;28;20503;-69
2021/06/06 11:45:24;;;;;;;5.82;2.60;;;;;;;;;;4973942;28;20360;-77
2021/06/06 11:47:59;;;;;;;6.13;2.85;;;;;;;;;;4973671;28;20035;-69
2021/06/06 11:51:04;;;;;;;6.65;2.63;;;;;;;;;;4973434;28;20023;-69
2021/06/06 11:53:41;;;;;;;6.03;2.17;;;;;;;;;;5073463;28;20028;-70
2021/06/06 11:56:23;;;;;;;4.07;2.15;;;;;;;;;;5073397;28;20029;-69
2021/06/06 11:59:08;;;;;;;6.13;1.95;;;;;;;;;;5007215;28;20118;-70
2021/06/06 12:01:36;;;;;;;8.85;2.25;;;;;;;;;;4973391;28;20031;-69
2021/06/06 12:04:08;;;;;;;4.43;2.25;;;;;;;;;;4973254;28;20038;-69
2021/06/06 12:06:36;;;;;;;5.90;2.05;;;;;;;;;;4973266;28;20034;-69
2021/06/06 12:09:24;;;;;;;6.03;2.22;;;;;;;;;;4973472;28;20038;-69
2021/06/06 12:11:53;;;;;;;6.50;2.30;;;;;;;;;;4973251;28;20026;-70
2021/06/06 12:14:22;;;;;;;4.97;2.08;;;;;;;;;;4972849;28;20069;-69
2021/06/06 12:16:49;;;;;;;6.25;2.50;;;;;;;;;;4973496;28;20038;-70
2021/06/06 12:19:17;;;;;;;4.35;1.98;;;;;;;;;;4973172;28;20054;-70
2021/06/06 12:21:45;;;;;;;8.25;2.10;;;;;;;;;;4972912;28;20023;-69
2021/06/06 12:24:16;;;;;;;7.82;2.63;;;;;;;;;;4972912;28;20088;-69
2021/06/06 12:26:47;;;;;;;5.13;1.98;;;;;;;;;;4972816;28;20042;-70
2021/06/06 12:29:14;;;;;;;6.72;2.58;;;;;;;;;;4973027;28;20053;-70
2021/06/06 12:31:43;;;;;;;5.97;1.98;;;;;;;;;;4973144;28;20026;-70
2021/06/06 12:34:29;;;;;;;3.90;1.90;;;;;;;;;;4972934;28;21020;-70
2021/06/06 12:36:59;;;;;;;4.35;1.73;;;;;;;;;;4972544;28;20015;-70
2021/06/06 12:39:27;;;;;;;;;;;;;;;;;;4974038;28;20039;-69
2021/06/06 12:41:56;;;;;;;8.80;2.45;;;;;;;;;;4973008;28;19906;-69
2021/06/06 12:44:31;;;;;;;9.10;1.98;;;;;;;;;;4972814;28;20029;-69
2021/06/06 12:47:02;;;;;;;7.78;2.25;;;;;;;;;;4972236;28;20030;-69
2021/06/06 12:49:47;;;;;;;5.03;1.80;;;;;;;;;;4972520;28;20035;-69
2021/06/06 12:52:38;;;;;;;9.60;1.70;;;;;;;;;;4972804;28;20023;-70
2021/06/06 12:55:23;;;;;;;6.15;1.70;;;;;;;;;;4982676;28;20073;-70
2021/06/06 12:57:56;;;;;;;4.20;1.52;;;;;;;;;;4969742;28;20034;-69
2021/06/06 13:00:29;;;;;;;4.30;1.70;;;;;;;;;;4970526;28;20039;-69
2021/06/06 13:02:56;;;;;;;4.28;1.85;;;;;;;;;;4972443;28;20497;-69
2021/06/06 13:05:33;;;;;;;7.68;2.13;;;;;;;;;;4970424;28;20035;-69
2021/06/06 13:08:01;;;;;;;4.25;1.55;;;;;;;;;;4952640;28;20058;-69
2021/06/06 13:10:41;;;;;;;5.03;1.92;;;;;;;;;;4952842;28;20024;-69
2021/06/06 13:13:18;;;;;;;9.05;2.30;;;;;;;;;;4952760;28;20031;-70
2021/06/06 13:15:46;;;;;;;3.97;1.83;;;;;;;;;;4952535;28;20031;-69
2021/06/06 13:18:20;;;;;;;3.47;1.90;;;;;;;;;;4952641;28;20094;-69
2021/06/06 13:20:52;;;;;;;5.18;1.92;;;;;;;;;;4950692;28;20037;-70
2021/06/06 13:23:40;;;;;;;5.60;2.08;;;;;;;;;;4949514;28;20031;-70
2021/06/06 13:26:10;;;;;;;9.10;2.13;;;;;;;;;;4949183;28;20027;-70
2021/06/06 13:28:55;;;;;;;6.10;2.00;;;;;;;;;;4950856;28;20415;-69
2021/06/06 13:31:30;;;;;;;5.22;2.13;;;;;;;;;;4952135;28;20088;-70
2021/06/06 13:33:57;;;;;;;7.45;2.55;;;;;;;;;;4951289;28;20031;-70
2021/06/06 13:36:25;;;;;;;6.88;2.17;;;;;;;;;;4952376;28;20023;-70
2021/06/06 13:38:53;;;;;;;4.50;2.00;;;;;;;;;;4952677;28;20058;-70
2021/06/06 13:41:21;;;;;;;5.70;2.25;;;;;;;;;;4952571;28;20089;-70
2021/06/06 13:43:49;;;;;;;6.03;2.47;;;;;;;;;;4952266;28;20102;-70
2021/06/06 13:46:20;;;;;;;4.57;2.25;;;;;;;;;;4952571;28;20058;-70
2021/06/06 13:48:47;;;;;;;3.80;2.50;;;;;;;;;;4952600;28;20033;-70
2021/06/06 13:51:14;;;;;;;5.07;2.33;;;;;;;;;;4952095;28;20058;-70
2021/06/06 13:53:42;;;;;;;9.38;2.65;;;;;;;;;;4952063;28;20439;-70
2021/06/06 13:56:08;;;;;;;4.50;2.15;;;;;;;;;;4952124;28;20110;-70
2021/06/06 13:58:35;;;;;;;4.57;2.10;;;;;;;;;;4951770;28;20034;-69
2021/06/06 14:01:02;;;;;;;4.10;2.17;;;;;;;;;;4952204;28;20015;-70
2021/06/06 14:03:35;;;;;;;4.38;2.70;;;;;;;;;;4952111;28;20035;-69
2021/06/06 14:06:03;;;;;;;6.60;2.22;;;;;;;;;;4952034;28;20035;-70
2021/06/06 14:08:31;;;;;;;6.20;2.13;;;;;;;;;;4952308;28;20114;-70
2021/06/06 14:10:58;;;;;;;4.70;1.77;;;;;;;;;;4952539;28;20459;-70
2021/06/06 14:13:29;;;;;;;5.00;2.08;;;;;;;;;;4952065;28;20032;-70
2021/06/06 14:15:57;;;;;;;7.88;2.03;;;;;;;;;;4950853;28;20412;-70
2021/06/06 14:18:26;;;;;;;4.15;2.45;;;;;;;;;;4951971;28;20154;-70
2021/06/06 14:20:53;;;;;;;5.95;2.03;;;;;;;;;;4950363;28;20104;-70
2021/06/06 14:23:22;;;;;;;3.42;2.00;;;;;;;;;;4951782;28;20028;-70
2021/06/06 14:25:50;;;;;;;8.60;2.67;;;;;;;;;;4952369;28;20043;-70
2021/06/06 14:28:17;;;;;;;6.88;2.20;;;;;;;;;;4951410;28;20023;-70
2021/06/06 14:30:44;;;;;;;5.13;2.33;;;;;;;;;;4951862;28;20415;-70
2021/06/06 14:33:12;;;;;;;5.18;2.20;;;;;;;;;;4966325;28;20052;-70
2021/06/06 14:35:39;;;;;;;7.50;2.40;;;;;;;;;;4951609;28;20036;-69
2021/06/06 14:38:07;;;;;;;5.03;2.17;;;;;;;;;;4954171;28;20414;-70
2021/06/06 14:40:35;;;;;;;6.35;2.28;;;;;;;;;;4954990;28;20027;-70
2021/06/06 14:43:03;;;;;;;3.67;1.80;;;;;;;;;;4954930;28;20028;-70
2021/06/06 14:45:35;;;;;;;3.75;2.13;;;;;;;;;;4955229;28;20027;-70
2021/06/06 14:48:05;;;;;;;7.30;2.00;;;;;;;;;;4955167;28;20031;-70
2021/06/06 14:50:31;;;;;;;4.07;1.98;;;;;;;;;;4954698;28;20059;-70
2021/06/06 14:53:00;;;;;;;4.40;2.17;;;;;;;;;;4955064;28;20027;-70